KPMD

Palmdale Usaf Plant 42 Airport

Palmdale, California, USA
METAR KPMD 200053Z AUTO 30015KT 10SM FEW021 BKN028 OVC036 08/04 A2989 RMK AO2 RAE29 SLP113 P0001 T00830044
Observed Flight Rules
Jan-20 @ 00:53 UTC (21 minutes ago) Marginal Visual Flight Rules
Wind Visibility Clouds
300° at 15 knots 10 miles
  • Few at 2,100' AGL
  • Broken at 2,800' AGL
  • Overcast at 3,600' AGL
Temperatures Readings Precipitation
Current 8°C / 46°F
Dewpoint 4°C / 39°F
Humidity 76%
Altimeter 29.89" Hg
Pressure 1011.3 hPa
Elevation 780
Current Rain 0.01
METAR KPMD 200053Z AUTO 30015KT 10SM FEW021 BKN028 OVC036 08/04 A2989 RMK AO2 RAE29 SLP113 P0001 T00830044
Observed Flight Rules
Jan-20 @ 00:53 UTC
(21 minutes ago)
MVFR
Wind Visibility
300° at 15 knots 10 miles
Clouds
  • Few at 2,100' AGL
  • Broken at 2,800' AGL
  • Overcast at 3,600' AGL
Temperature Dewpoint
8°C / 46°F 4°C / 39°F
Humidity Altimeter Pressure
76% 29.89" Hg 1011.3 hPa
Current Rain
0.01